KOMK/OMK METAR and TAF weather

Enter ICAO airport designator
Station Type Date Time Source
KOMK METAR 2019/08/25 19:53 UTC NOAA

KOMK 251953Z AUTO 04014G18KT 10SM CLR 26/05 A3003 RMK AO2 SLP164 T02610050


Station Type Date Time Source
KOMK Decoded METAR 2019/08/25 19:53 UTC NOAA

Station name not available
Aug 25, 2019 - 03:53 PM EDT / 2019.08.25 1953 UTC
Wind: from the NE (040 degrees) at 16 MPH (14 KT) gusting to 21 MPH (18 KT):0
Visibility: 10 mile(s):0
Sky conditions: clear
Temperature: 79.0 F (26.1 C)
Dew Point: 41.0 F (5.0 C)
Relative Humidity: 25%
Pressure (altimeter): 30.03 in. Hg (1016 hPa)
ob: KOMK 251953Z AUTO 04014G18KT 10SM CLR 26/05 A3003 RMK AO2 SLP164 T02610050
cycle: 20

Station Type Date Time Source
KOMK TAF UTC NOAA

Error!

Example: see airport list